createdAt,value
2019-02-26T00:01:59.922Z,99.90
2019-02-26T00:04:30.357Z,99.90
2019-02-26T00:07:01.059Z,99.90
2019-02-26T00:09:33.075Z,99.90
2019-02-26T00:12:01.927Z,99.90
2019-02-26T00:14:32.727Z,99.90
2019-02-26T00:17:06.215Z,99.90
2019-02-26T00:19:33.711Z,99.90
2019-02-26T00:22:03.445Z,99.90
2019-02-26T00:24:35.318Z,99.90
2019-02-26T00:27:05.495Z,99.90
2019-02-26T00:29:35.685Z,99.90
2019-02-26T00:32:07.000Z,99.90
2019-02-26T00:34:37.329Z,99.90
2019-02-26T00:37:08.490Z,99.90
2019-02-26T00:39:38.168Z,99.90
2019-02-26T00:42:07.939Z,99.90
2019-02-26T00:44:37.619Z,99.90
2019-02-26T00:47:08.997Z,99.90
2019-02-26T00:49:38.817Z,99.90
2019-02-26T00:52:09.293Z,99.90
2019-02-26T00:54:39.708Z,99.90
2019-02-26T00:57:11.526Z,99.90
2019-02-26T00:59:41.299Z,99.90
2019-02-26T01:02:11.864Z,99.90
2019-02-26T01:04:43.851Z,99.90
2019-02-26T01:07:13.039Z,99.90
2019-02-26T01:09:42.713Z,99.90
2019-02-26T01:12:13.713Z,99.90
2019-02-26T01:14:45.801Z,99.90
2019-02-26T01:17:16.992Z,99.90
2019-02-26T01:19:46.493Z,99.90
2019-02-26T01:22:16.005Z,99.90
2019-02-26T01:24:47.611Z,99.90
2019-02-26T01:27:16.763Z,99.90
2019-02-26T01:29:47.234Z,99.90
2019-02-26T01:32:20.031Z,99.90
2019-02-26T01:34:49.521Z,99.90
2019-02-26T01:37:19.219Z,99.90
2019-02-26T01:39:50.064Z,99.90
2019-02-26T01:42:24.277Z,99.90
2019-02-26T01:44:51.569Z,99.90
2019-02-26T01:47:21.781Z,99.90
2019-02-26T01:49:52.535Z,99.90
2019-02-26T01:52:22.887Z,99.90
2019-02-26T01:54:53.501Z,99.90
2019-02-26T01:57:27.177Z,99.90
2019-02-26T01:59:54.946Z,99.90
2019-02-26T02:02:25.369Z,99.90
2019-02-26T02:04:57.266Z,99.90
2019-02-26T02:07:28.699Z,99.90
2019-02-26T02:10:00.591Z,99.90
2019-02-26T02:12:31.863Z,99.90
2019-02-26T02:15:00.899Z,99.90
2019-02-26T02:17:31.601Z,99.90
2019-02-26T02:20:05.268Z,99.90
2019-02-26T02:22:35.084Z,99.90
2019-02-26T02:25:04.958Z,99.90
2019-02-26T02:27:34.905Z,99.90
2019-02-26T02:30:17.890Z,99.90
2019-02-26T02:32:50.505Z,99.90
2019-02-26T02:35:19.055Z,99.90
2019-02-26T02:37:47.986Z,99.90
2019-02-26T02:40:17.745Z,99.90
2019-02-26T02:42:49.097Z,99.90
2019-02-26T02:45:21.105Z,99.90
2019-02-26T02:47:54.827Z,99.90
2019-02-26T02:50:40.830Z,99.90
2019-02-26T02:53:32.364Z,99.90
2019-02-26T02:56:42.394Z,99.90
2019-02-26T02:59:54.443Z,99.90
2019-02-26T03:03:02.310Z,99.90
2019-02-26T03:06:12.375Z,99.90
2019-02-26T03:09:20.614Z,99.90
2019-02-26T03:12:29.240Z,99.90
2019-02-26T03:15:21.869Z,99.90
2019-02-26T03:18:29.673Z,99.90
2019-02-26T03:21:21.981Z,99.90
2019-02-26T03:24:25.496Z,99.90
2019-02-26T03:27:07.027Z,99.90
2019-02-26T03:29:49.920Z,99.90
2019-02-26T03:32:36.060Z,99.90
2019-02-26T03:35:19.647Z,99.90
2019-02-26T03:38:03.466Z,99.90
2019-02-26T03:40:45.597Z,99.90
2019-02-26T03:43:28.622Z,99.90
2019-02-26T03:46:11.642Z,99.90
2019-02-26T03:48:53.180Z,99.90
2019-02-26T03:51:39.129Z,99.90
2019-02-26T03:54:18.664Z,99.90
2019-02-26T03:57:00.885Z,99.90
2019-02-26T03:59:42.750Z,99.90
2019-02-26T04:02:24.535Z,99.90
2019-02-26T04:05:08.823Z,99.90
2019-02-26T04:07:53.297Z,99.90
2019-02-26T04:10:33.566Z,99.90
2019-02-26T04:13:15.408Z,99.90
2019-02-26T04:15:59.587Z,99.90
2019-02-26T04:18:41.709Z,99.90
2019-02-26T04:21:23.958Z,99.90
2019-02-26T04:24:06.394Z,99.90
2019-02-26T04:26:49.284Z,99.90
2019-02-26T04:29:35.436Z,99.90
2019-02-26T04:32:18.140Z,99.90
2019-02-26T04:35:27.209Z,99.90
2019-02-26T04:38:37.131Z,99.90
2019-02-26T04:41:48.432Z,99.90
2019-02-26T04:45:01.006Z,99.90
2019-02-26T04:48:31.699Z,99.90
2019-02-26T04:51:41.944Z,99.90
2019-02-26T04:54:49.362Z,99.90
2019-02-26T04:57:42.599Z,99.90
2019-02-26T05:00:49.705Z,99.90
2019-02-26T05:03:40.397Z,99.90
2019-02-26T05:06:30.825Z,99.90
2019-02-26T05:09:22.143Z,99.90
2019-02-26T05:12:33.985Z,99.90
2019-02-26T05:15:43.511Z,99.90
2019-02-26T05:18:54.892Z,99.90
2019-02-26T05:21:56.821Z,99.90
2019-02-26T05:24:41.627Z,99.90
2019-02-26T05:27:24.833Z,99.90
2019-02-26T05:30:07.479Z,99.90
2019-02-26T05:32:51.942Z,99.90
2019-02-26T05:35:34.025Z,99.90
2019-02-26T05:38:15.651Z,99.90
2019-02-26T05:40:57.670Z,99.90
2019-02-26T05:43:39.787Z,99.90
2019-02-26T05:46:26.382Z,99.90
2019-02-26T05:49:09.268Z,99.90
2019-02-26T05:51:48.800Z,99.90
2019-02-26T05:54:30.948Z,99.90
2019-02-26T05:57:27.120Z,99.90
2019-02-26T05:59:57.409Z,99.90
2019-02-26T06:02:42.611Z,99.90
2019-02-26T06:05:26.189Z,99.90
2019-02-26T06:08:08.059Z,99.90
2019-02-26T06:10:50.081Z,99.90
2019-02-26T06:13:34.619Z,99.90
2019-02-26T06:16:16.020Z,99.90
2019-02-26T06:18:57.486Z,99.90
2019-02-26T06:21:44.000Z,99.90
2019-02-26T06:24:24.847Z,99.90
2019-02-26T06:27:08.625Z,99.90
2019-02-26T06:29:52.823Z,99.90
2019-02-26T06:32:35.206Z,99.90
2019-02-26T06:35:19.138Z,99.90
2019-02-26T06:38:02.101Z,99.90
2019-02-26T06:40:48.537Z,99.90
2019-02-26T06:43:30.891Z,99.90
2019-02-26T06:46:14.135Z,99.90
2019-02-26T06:48:56.105Z,99.90
2019-02-26T06:51:38.105Z,99.90
2019-02-26T06:54:22.163Z,99.90
2019-02-26T06:57:03.146Z,99.90
2019-02-26T06:59:46.193Z,99.90
2019-02-26T07:02:28.946Z,99.90
2019-02-26T07:05:10.743Z,99.90
2019-02-26T07:07:55.065Z,99.90
2019-02-26T07:10:36.028Z,99.90
2019-02-26T07:13:17.985Z,99.90
2019-02-26T07:16:00.035Z,99.90
2019-02-26T07:18:42.171Z,99.90
2019-02-26T07:21:23.948Z,99.90
2019-02-26T07:24:07.695Z,99.90
2019-02-26T07:26:49.476Z,99.90
2019-02-26T07:29:33.228Z,99.90
2019-02-26T07:32:17.316Z,99.90
2019-02-26T07:34:58.943Z,99.90
2019-02-26T07:37:40.517Z,99.90
2019-02-26T07:40:23.098Z,99.90
2019-02-26T07:43:09.103Z,99.90
2019-02-26T07:45:48.655Z,99.90
2019-02-26T07:48:29.475Z,99.90
2019-02-26T07:51:19.197Z,99.90
2019-02-26T07:54:28.824Z,99.90
2019-02-26T07:57:37.685Z,99.90
2019-02-26T08:00:30.556Z,99.90
2019-02-26T08:03:19.434Z,99.90
2019-02-26T08:06:29.371Z,99.90
2019-02-26T08:09:38.676Z,99.90
2019-02-26T08:12:32.383Z,99.90
2019-02-26T08:15:39.896Z,99.90
2019-02-26T08:18:49.344Z,99.90
2019-02-26T08:21:58.896Z,99.90
2019-02-26T08:24:41.992Z,99.90
2019-02-26T08:27:23.714Z,99.90
2019-02-26T08:30:07.705Z,99.90
2019-02-26T08:32:53.462Z,99.90
2019-02-26T08:35:33.882Z,99.90
2019-02-26T08:38:13.771Z,99.90
2019-02-26T08:41:03.977Z,99.90
2019-02-26T08:43:56.394Z,99.90
2019-02-26T08:47:08.696Z,99.90
2019-02-26T08:50:15.111Z,99.90
2019-02-26T08:53:26.489Z,99.90
2019-02-26T08:56:36.305Z,99.90
2019-02-26T08:59:47.137Z,99.90
2019-02-26T09:02:35.537Z,99.90
2019-02-26T09:05:09.327Z,99.90
2019-02-26T09:07:40.399Z,99.90
2019-02-26T09:10:17.566Z,99.90
2019-02-26T09:12:48.978Z,99.90
2019-02-26T09:15:19.553Z,99.90
2019-02-26T09:17:49.348Z,99.90
2019-02-26T09:20:19.867Z,99.90
2019-02-26T09:22:52.982Z,99.90
2019-02-26T09:25:23.435Z,99.90
2019-02-26T09:27:51.687Z,99.90
2019-02-26T09:30:21.393Z,99.90
2019-02-26T09:32:52.391Z,99.90
2019-02-26T09:35:27.390Z,99.90
2019-02-26T09:37:56.256Z,99.90
2019-02-26T09:40:26.573Z,99.90
2019-02-26T09:42:58.169Z,99.90
2019-02-26T09:45:29.811Z,99.90
2019-02-26T09:48:00.978Z,99.90
2019-02-26T09:50:29.991Z,99.90
2019-02-26T09:52:59.484Z,99.90
2019-02-26T09:55:28.921Z,99.90
2019-02-26T09:57:58.335Z,99.90
2019-02-26T10:00:29.486Z,99.90
2019-02-26T10:02:59.339Z,99.90
2019-02-26T10:05:28.808Z,99.90
2019-02-26T10:08:00.458Z,99.90
2019-02-26T10:10:31.180Z,99.90
2019-02-26T10:13:04.158Z,99.90
2019-02-26T10:15:32.339Z,99.90
2019-02-26T10:18:04.871Z,99.90
2019-02-26T10:20:34.474Z,99.90
2019-02-26T10:23:06.176Z,97.50
2019-02-26T10:25:38.743Z,96.70
2019-02-26T10:28:09.635Z,96.60
2019-02-26T10:30:39.438Z,97.40
2019-02-26T10:33:08.714Z,95.00
2019-02-26T10:35:39.615Z,95.50
2019-02-26T10:38:11.450Z,94.00
2019-02-26T10:40:51.512Z,91.50
2019-02-26T10:43:12.070Z,90.60
2019-02-26T10:45:44.277Z,90.30
2019-02-26T10:48:13.733Z,88.90
2019-02-26T10:50:46.985Z,90.00
2019-02-26T10:53:18.920Z,89.50
2019-02-26T10:55:46.436Z,86.30
2019-02-26T10:58:16.098Z,90.80
2019-02-26T11:00:45.761Z,88.80
2019-02-26T11:03:17.294Z,86.70
2019-02-26T11:05:48.630Z,83.20
2019-02-26T11:08:17.886Z,83.20
2019-02-26T11:10:49.690Z,82.40
2019-02-26T11:13:20.972Z,84.10
2019-02-26T11:15:51.669Z,81.30
2019-02-26T11:18:23.245Z,82.40
2019-02-26T11:20:55.294Z,82.40
2019-02-26T11:23:30.751Z,76.60
2019-02-26T11:25:54.593Z,74.10
2019-02-26T11:28:27.137Z,68.40
2019-02-26T11:30:56.695Z,63.70
2019-02-26T11:33:26.221Z,59.30
2019-02-26T11:35:55.657Z,60.90
2019-02-26T11:38:25.215Z,73.20
2019-02-26T11:40:54.704Z,83.30
2019-02-26T11:43:27.056Z,68.70
2019-02-26T11:45:56.757Z,63.30
2019-02-26T11:48:28.946Z,66.40
2019-02-26T11:51:00.777Z,61.40
2019-02-26T11:53:29.844Z,60.60
2019-02-26T11:56:01.844Z,59.80
2019-02-26T11:58:30.879Z,64.80
2019-02-26T12:01:00.620Z,60.70
2019-02-26T12:03:33.150Z,58.70
2019-02-26T12:06:02.189Z,56.70
2019-02-26T12:08:31.747Z,78.30
2019-02-26T12:11:03.835Z,61.80
2019-02-26T12:13:33.178Z,59.90
2019-02-26T12:16:02.670Z,59.00
2019-02-26T12:18:34.087Z,55.70
2019-02-26T12:21:05.389Z,55.30
2019-02-26T12:23:36.892Z,53.20
2019-02-26T12:26:05.745Z,53.50
2019-02-26T12:28:37.645Z,50.90
2019-02-26T12:31:08.111Z,48.10
2019-02-26T12:33:37.767Z,47.10
2019-02-26T12:36:08.022Z,47.20
2019-02-26T12:38:38.875Z,45.90
2019-02-26T12:41:09.683Z,44.60
2019-02-26T12:43:43.102Z,44.60
2019-02-26T12:46:10.938Z,45.40
2019-02-26T12:48:44.208Z,45.80
2019-02-26T12:51:11.811Z,44.00
2019-02-26T12:53:46.821Z,44.60
2019-02-26T12:56:15.182Z,42.80
2019-02-26T12:58:47.982Z,43.90
2019-02-26T13:01:15.948Z,42.80
2019-02-26T13:03:50.094Z,42.60
2019-02-26T13:08:50.548Z,44.00
2019-02-26T13:11:20.967Z,45.00
2019-02-26T13:13:52.623Z,45.40
2019-02-26T13:16:21.688Z,44.30
2019-02-26T13:18:52.617Z,44.00
2019-02-26T13:21:22.620Z,44.40
2019-02-26T13:23:52.013Z,43.90
2019-02-26T13:26:22.419Z,44.10
2019-02-26T13:28:52.694Z,42.80
2019-02-26T13:31:23.235Z,42.40
2019-02-26T13:33:52.818Z,42.00
2019-02-26T13:36:22.218Z,41.50
2019-02-26T13:38:51.933Z,41.60
2019-02-26T13:41:29.597Z,40.00
2019-02-26T13:43:52.736Z,39.20
2019-02-26T13:46:22.170Z,39.10
2019-02-26T13:48:51.871Z,38.90
2019-02-26T13:51:21.339Z,38.70
2019-02-26T13:53:50.898Z,38.00
2019-02-26T13:56:20.298Z,38.00
2019-02-26T13:58:49.881Z,37.60
2019-02-26T14:01:19.448Z,37.90
2019-02-26T14:03:48.944Z,38.20
2019-02-26T14:06:18.566Z,38.10
2019-02-26T14:08:48.097Z,37.80
2019-02-26T14:11:17.831Z,37.80
2019-02-26T14:13:47.263Z,37.10
2019-02-26T14:16:16.836Z,37.70
2019-02-26T14:18:48.169Z,37.90
2019-02-26T14:21:17.393Z,37.70
2019-02-26T14:23:46.941Z,37.00
2019-02-26T14:26:17.159Z,35.80
2019-02-26T14:28:47.244Z,35.00
2019-02-26T14:31:17.137Z,34.60
2019-02-26T14:33:46.966Z,33.90
2019-02-26T14:36:17.161Z,33.10
2019-02-26T14:38:46.863Z,32.30
2019-02-26T14:41:16.906Z,31.50
2019-02-26T14:43:46.405Z,30.70
2019-02-26T14:46:16.227Z,30.00
2019-02-26T14:48:45.991Z,29.60
2019-02-26T14:51:17.688Z,29.60
2019-02-26T14:53:49.071Z,30.30
2019-02-26T14:56:19.196Z,30.50
2019-02-26T14:58:48.903Z,30.50
2019-02-26T15:01:18.933Z,31.10
2019-02-26T15:03:48.277Z,30.10
2019-02-26T15:06:17.950Z,29.80
2019-02-26T15:08:47.303Z,29.40
2019-02-26T15:11:17.225Z,29.90
2019-02-26T15:13:46.856Z,29.70
2019-02-26T15:16:19.325Z,30.00
2019-02-26T15:18:48.261Z,30.40
2019-02-26T15:21:18.247Z,31.20
2019-02-26T15:23:50.247Z,30.60
2019-02-26T15:26:19.621Z,31.00
2019-02-26T15:31:12.814Z,30.50
2019-02-26T15:33:42.299Z,31.00
2019-02-26T15:36:12.250Z,32.30
2019-02-26T15:38:42.210Z,32.30
2019-02-26T15:41:12.247Z,31.90
2019-02-26T15:43:42.232Z,31.20
2019-02-26T15:46:12.235Z,30.50
2019-02-26T15:48:42.182Z,30.40
2019-02-26T15:51:14.560Z,30.90
2019-02-26T15:53:43.366Z,32.50
2019-02-26T15:56:13.265Z,32.40
2019-02-26T15:58:42.987Z,32.60
2019-02-26T16:01:15.139Z,32.70
2019-02-26T16:03:44.195Z,33.60
2019-02-26T16:06:13.937Z,34.70
2019-02-26T16:08:43.990Z,36.20
2019-02-26T16:11:14.000Z,37.80
2019-02-26T16:13:43.994Z,38.70
2019-02-26T16:16:14.063Z,39.90
2019-02-26T16:18:43.500Z,41.20
2019-02-26T16:21:13.036Z,42.40
2019-02-26T16:23:42.473Z,43.50
2019-02-26T16:26:12.042Z,44.50
2019-02-26T16:28:41.464Z,45.40
2019-02-26T16:31:11.050Z,46.10
2019-02-26T16:33:40.468Z,47.10
2019-02-26T16:36:10.026Z,47.70
2019-02-26T16:38:39.549Z,48.40
2019-02-26T16:41:09.020Z,49.10
2019-02-26T16:43:38.422Z,49.70
2019-02-26T16:46:08.532Z,50.30
2019-02-26T16:48:38.671Z,50.70
2019-02-26T16:51:08.184Z,51.40
2019-02-26T16:53:38.301Z,51.90
2019-02-26T16:56:08.037Z,52.30
2019-02-26T16:58:37.515Z,52.70
2019-02-26T17:01:07.625Z,53.20
2019-02-26T17:03:37.276Z,53.80
2019-02-26T17:06:06.706Z,54.10
2019-02-26T17:08:36.276Z,54.50
2019-02-26T17:11:05.697Z,54.90
2019-02-26T17:13:35.544Z,55.30
2019-02-26T17:16:05.052Z,55.70
2019-02-26T17:18:34.508Z,56.30
2019-02-26T17:21:04.048Z,56.70
2019-02-26T17:23:34.348Z,57.60
2019-02-26T17:26:04.082Z,58.20
2019-02-26T17:28:34.356Z,59.20
2019-02-26T17:31:04.047Z,59.90
2019-02-26T17:33:34.390Z,61.70
2019-02-26T17:36:04.063Z,62.80
2019-02-26T17:38:34.429Z,65.10
2019-02-26T17:41:04.103Z,66.60
2019-02-26T17:43:34.389Z,68.50
2019-02-26T17:46:04.059Z,70.60
2019-02-26T17:48:43.232Z,72.10
2019-02-26T17:51:05.518Z,74.00
2019-02-26T17:53:35.253Z,75.10
2019-02-26T17:56:04.746Z,76.90
2019-02-26T17:58:34.488Z,78.30
2019-02-26T18:01:04.098Z,80.60
2019-02-26T18:03:34.449Z,81.80
2019-02-26T18:06:04.097Z,83.70
2019-02-26T18:08:34.436Z,84.90
2019-02-26T18:11:04.679Z,85.30
2019-02-26T18:13:34.517Z,87.40
2019-02-26T18:16:09.074Z,87.60
2019-02-26T18:18:35.422Z,89.00
2019-02-26T18:21:05.989Z,90.20
2019-02-26T18:23:37.763Z,90.80
2019-02-26T18:26:07.648Z,99.70
2019-02-26T18:28:37.413Z,97.40
2019-02-26T18:31:07.126Z,95.70
2019-02-26T18:33:36.608Z,94.50
2019-02-26T18:36:06.189Z,94.90
2019-02-26T18:38:35.657Z,94.60
2019-02-26T18:41:05.226Z,96.50
2019-02-26T18:43:34.754Z,98.00
2019-02-26T18:46:04.227Z,99.10
2019-02-26T18:48:34.496Z,99.10
2019-02-26T18:51:04.177Z,99.70
2019-02-26T18:53:34.524Z,99.80
2019-02-26T18:56:04.932Z,99.90
2019-02-26T18:58:34.513Z,99.90
2019-02-26T19:01:04.212Z,99.90
2019-02-26T19:03:34.486Z,99.90
2019-02-26T19:06:04.220Z,99.90
2019-02-26T19:08:34.746Z,99.90
2019-02-26T19:11:04.308Z,98.60
2019-02-26T19:13:35.591Z,96.40
2019-02-26T19:16:05.735Z,93.50
2019-02-26T19:18:36.188Z,92.50
2019-02-26T19:21:06.302Z,91.50
2019-02-26T19:23:35.733Z,92.80
2019-02-26T19:26:05.324Z,92.50
2019-02-26T19:28:34.750Z,92.80
2019-02-26T19:31:04.332Z,93.70
2019-02-26T19:33:34.525Z,94.40
2019-02-26T19:36:04.443Z,94.70
2019-02-26T19:38:34.577Z,94.80
2019-02-26T19:41:12.641Z,96.30
2019-02-26T19:43:41.778Z,96.40
2019-02-26T19:46:11.364Z,96.90
2019-02-26T19:48:40.786Z,97.10
2019-02-26T19:51:10.364Z,97.90
2019-02-26T19:53:39.808Z,98.40
2019-02-26T19:56:09.381Z,99.50
2019-02-26T19:58:40.809Z,99.90
2019-02-26T20:01:09.989Z,99.90
2019-02-26T20:03:40.745Z,99.90
2019-02-26T20:06:10.391Z,99.90
2019-02-26T20:08:39.824Z,99.90
2019-02-26T20:11:09.398Z,99.90
2019-02-26T20:13:42.088Z,99.90
2019-02-26T20:16:10.100Z,99.90
2019-02-26T20:18:39.598Z,99.90
2019-02-26T20:21:09.074Z,99.90
2019-02-26T20:23:41.815Z,99.90
2019-02-26T20:26:09.672Z,99.90
2019-02-26T20:28:39.479Z,99.90
2019-02-26T20:31:08.954Z,99.90
2019-02-26T20:33:38.629Z,99.90
2019-02-26T20:36:08.124Z,99.90
2019-02-26T20:38:37.607Z,99.90
2019-02-26T20:41:06.982Z,99.90
2019-02-26T20:43:37.332Z,99.90
2019-02-26T20:46:06.829Z,99.90
2019-02-26T20:48:37.326Z,99.90
2019-02-26T20:51:27.238Z,99.90
2019-02-26T20:54:36.220Z,99.90
2019-02-26T20:57:26.945Z,99.90
2019-02-26T21:00:42.412Z,99.90
2019-02-26T21:06:58.048Z,99.90
2019-02-26T21:09:27.651Z,99.90
2019-02-26T21:11:57.603Z,99.90
2019-02-26T21:14:27.460Z,99.90
2019-02-26T21:17:01.659Z,99.90
2019-02-26T21:19:31.251Z,99.90
2019-02-26T21:22:00.751Z,99.90
2019-02-26T21:24:31.887Z,99.90
2019-02-26T21:27:01.554Z,99.90
2019-02-26T21:29:30.990Z,99.90
2019-02-26T21:32:00.614Z,99.90
2019-02-26T21:34:30.122Z,99.90
2019-02-26T21:37:00.078Z,99.90
2019-02-26T21:39:30.189Z,99.90
2019-02-26T21:41:59.640Z,99.90
2019-02-26T21:44:29.071Z,99.90
2019-02-26T21:46:58.538Z,99.90
2019-02-26T21:49:27.958Z,99.90
2019-02-26T21:51:57.624Z,99.90
2019-02-26T21:54:27.057Z,99.90
2019-02-26T21:56:56.638Z,99.90
2019-02-26T21:59:28.272Z,99.90
2019-02-26T22:01:59.516Z,99.90
2019-02-26T22:04:31.717Z,99.90
2019-02-26T22:07:01.731Z,99.90
2019-02-26T22:09:31.181Z,99.90
2019-02-26T22:12:00.670Z,99.90
2019-02-26T22:14:30.515Z,99.90
2019-02-26T22:17:00.582Z,99.90
2019-02-26T22:19:30.227Z,99.90
2019-02-26T22:21:59.581Z,99.90
2019-02-26T22:24:29.067Z,99.90
2019-02-26T22:27:00.171Z,99.90
2019-02-26T22:29:30.009Z,99.90
2019-02-26T22:32:01.509Z,99.90
2019-02-26T22:34:30.669Z,99.90
2019-02-26T22:37:00.164Z,99.90
2019-02-26T22:39:29.773Z,99.90
2019-02-26T22:41:59.543Z,99.90
2019-02-26T22:44:29.007Z,99.90
2019-02-26T22:46:59.151Z,99.90
2019-02-26T22:49:28.795Z,99.90
2019-02-26T22:51:58.635Z,99.90
2019-02-26T22:54:28.674Z,99.90
2019-02-26T22:56:58.117Z,99.90
2019-02-26T22:59:27.712Z,99.90
2019-02-26T23:01:57.195Z,99.90
2019-02-26T23:04:26.688Z,99.90
2019-02-26T23:06:56.194Z,99.90
2019-02-26T23:09:26.269Z,99.90
2019-02-26T23:11:55.712Z,99.90
2019-02-26T23:17:43.927Z,99.90
2019-02-26T23:20:52.169Z,99.90
2019-02-26T23:23:21.874Z,99.90
2019-02-26T23:25:51.456Z,99.90
2019-02-26T23:28:39.614Z,99.90
2019-02-26T23:31:27.401Z,99.90
2019-02-26T23:34:15.105Z,99.90
2019-02-26T23:37:03.114Z,99.90
2019-02-26T23:39:51.063Z,99.90
2019-02-26T23:43:00.642Z,99.90
2019-02-26T23:46:08.873Z,99.90
2019-02-26T23:49:17.190Z,99.90
2019-02-26T23:52:27.715Z,99.90
2019-02-26T23:55:35.433Z,99.90
2019-02-26T23:58:24.327Z,99.90
